createdAt,value
2022-08-10T00:01:54.005Z,1.70
2022-08-10T00:04:23.354Z,1.80
2022-08-10T00:06:52.533Z,1.60
2022-08-10T00:09:19.454Z,1.60
2022-08-10T00:11:46.481Z,1.30
2022-08-10T00:14:13.103Z,1.53
2022-08-10T00:16:39.889Z,1.50
2022-08-10T00:19:06.469Z,1.60
2022-08-10T00:21:33.029Z,1.50
2022-08-10T00:24:00.154Z,1.40
2022-08-10T00:26:27.279Z,1.60
2022-08-10T00:29:14.306Z,1.77
2022-08-10T00:31:57.998Z,1.53
2022-08-10T00:34:25.673Z,1.80
2022-08-10T00:36:52.698Z,1.87
2022-08-10T00:39:19.749Z,1.57
2022-08-10T00:41:46.876Z,1.80
2022-08-10T00:44:33.633Z,1.57
2022-08-10T00:47:00.903Z,1.90
2022-08-10T00:49:28.611Z,1.30
2022-08-10T00:51:55.319Z,1.60
2022-08-10T00:54:24.189Z,1.40
2022-08-10T00:57:15.696Z,1.50
2022-08-10T00:59:38.573Z,1.40
2022-08-10T01:02:25.605Z,1.70
2022-08-10T01:04:59.779Z,1.70
2022-08-10T01:08:05.239Z,1.70
2022-08-10T01:10:35.115Z,1.70
2022-08-10T01:13:11.200Z,1.43
2022-08-10T01:16:13.365Z,1.90
2022-08-10T01:18:55.092Z,1.43
2022-08-10T01:21:58.357Z,1.73
2022-08-10T01:25:17.058Z,1.53
2022-08-10T01:28:08.331Z,1.50
2022-08-10T01:30:36.022Z,1.47
2022-08-10T01:33:12.102Z,1.33
2022-08-10T01:35:46.207Z,1.43
2022-08-10T01:38:27.350Z,1.47
2022-08-10T01:41:03.162Z,1.23
2022-08-10T01:43:31.667Z,1.40
2022-08-10T01:46:00.145Z,1.90
2022-08-10T01:48:38.590Z,1.70
2022-08-10T01:51:05.677Z,1.60
2022-08-10T01:53:47.061Z,1.70
2022-08-10T01:56:16.381Z,2.00
2022-08-10T01:58:46.336Z,1.77
2022-08-10T02:01:17.073Z,1.50
2022-08-10T02:04:03.091Z,1.50
2022-08-10T02:06:35.102Z,1.53
2022-08-10T02:09:06.381Z,1.67
2022-08-10T02:12:06.674Z,1.73
2022-08-10T02:14:33.322Z,1.23
2022-08-10T02:17:05.703Z,1.57
2022-08-10T02:19:34.602Z,1.70
2022-08-10T02:22:35.081Z,1.63
2022-08-10T02:24:50.635Z,1.63
2022-08-10T02:27:18.857Z,1.40
2022-08-10T02:29:48.981Z,1.57
2022-08-10T02:32:20.158Z,1.60
2022-08-10T02:35:05.891Z,1.40
2022-08-10T02:37:35.996Z,2.03
2022-08-10T02:40:02.777Z,1.70
2022-08-10T02:45:18.213Z,1.70
2022-08-10T02:45:31.053Z,1.77
2022-08-10T02:48:07.159Z,1.70
2022-08-10T02:50:35.925Z,2.00
2022-08-10T02:53:54.755Z,2.10
2022-08-10T02:56:24.653Z,1.70
2022-08-10T02:58:58.303Z,1.50
2022-08-10T03:01:31.180Z,2.10
2022-08-10T03:04:02.172Z,1.80
2022-08-10T03:06:35.741Z,1.60
2022-08-10T03:09:04.452Z,1.73
2022-08-10T03:12:35.940Z,1.90
2022-08-10T03:14:21.336Z,1.73
2022-08-10T03:16:48.517Z,1.97
2022-08-10T03:20:35.845Z,1.60
2022-08-10T03:22:05.857Z,1.93
2022-08-10T03:24:34.441Z,1.80
2022-08-10T03:27:03.060Z,1.90
2022-08-10T03:30:31.706Z,1.87
2022-08-10T03:32:19.084Z,1.97
2022-08-10T03:34:46.328Z,1.60
2022-08-10T03:37:13.461Z,2.10
2022-08-10T03:39:40.177Z,1.77
2022-08-10T03:42:10.459Z,1.83
2022-08-10T03:44:37.807Z,1.80
2022-08-10T03:47:15.284Z,1.90
2022-08-10T03:49:46.651Z,1.87
2022-08-10T03:52:14.629Z,1.80
2022-08-10T03:54:41.932Z,1.80
2022-08-10T03:57:09.158Z,1.93
2022-08-10T03:59:36.882Z,1.73
2022-08-10T04:02:43.489Z,1.60
2022-08-10T04:04:53.477Z,1.90
2022-08-10T04:07:20.523Z,2.43
2022-08-10T04:09:54.872Z,1.60
2022-08-10T04:12:23.501Z,1.90
2022-08-10T04:14:52.880Z,1.80
2022-08-10T04:17:57.213Z,1.80
2022-08-10T04:20:15.877Z,2.10
2022-08-10T04:22:44.787Z,1.80
2022-08-10T04:25:13.626Z,1.63
2022-08-10T04:27:40.302Z,1.60
2022-08-10T04:30:07.628Z,1.70
2022-08-10T04:32:35.638Z,2.30
2022-08-10T04:35:04.919Z,2.07
2022-08-10T04:37:32.068Z,1.87
2022-08-10T04:39:59.148Z,1.57
2022-08-10T04:42:25.959Z,2.13
2022-08-10T04:44:53.017Z,2.10
2022-08-10T04:47:57.672Z,2.10
2022-08-10T04:50:07.765Z,1.90
2022-08-10T04:52:34.729Z,1.77
2022-08-10T04:55:01.872Z,2.00
2022-08-10T04:57:28.937Z,1.83
2022-08-10T04:59:55.982Z,1.70
2022-08-10T05:02:31.549Z,1.50
2022-08-10T05:04:58.987Z,1.57
2022-08-10T05:07:25.651Z,1.97
2022-08-10T05:10:04.818Z,2.00
2022-08-10T05:12:38.255Z,1.67
2022-08-10T05:15:10.374Z,2.00
2022-08-10T05:17:38.245Z,1.87
2022-08-10T05:20:07.771Z,1.73
2022-08-10T05:22:43.530Z,2.10
2022-08-10T05:25:15.550Z,1.93
2022-08-10T05:27:42.864Z,2.10
2022-08-10T05:30:13.558Z,1.90
2022-08-10T05:32:56.812Z,1.93
2022-08-10T05:35:25.508Z,1.70
2022-08-10T05:38:11.657Z,1.67
2022-08-10T05:40:41.123Z,2.00
2022-08-10T05:43:16.866Z,2.00
2022-08-10T05:46:17.395Z,2.10
2022-08-10T05:48:41.854Z,1.73
2022-08-10T05:51:19.233Z,1.60
2022-08-10T05:54:01.154Z,1.73
2022-08-10T05:56:56.176Z,1.50
2022-08-10T06:00:34.550Z,1.80
2022-08-10T06:02:33.531Z,1.50
2022-08-10T06:04:56.742Z,1.77
2022-08-10T06:07:27.329Z,1.47
2022-08-10T06:09:59.488Z,1.90
2022-08-10T06:12:30.332Z,1.67
2022-08-10T06:15:05.603Z,1.97
2022-08-10T06:17:33.359Z,2.00
2022-08-10T06:20:01.185Z,1.80
2022-08-10T06:22:30.263Z,1.97
2022-08-10T06:25:32.051Z,1.80
2022-08-10T06:27:46.904Z,2.20
2022-08-10T06:30:20.900Z,2.00
2022-08-10T06:32:50.345Z,2.40
2022-08-10T06:35:18.230Z,1.63
2022-08-10T06:37:50.740Z,2.13
2022-08-10T06:40:19.535Z,1.87
2022-08-10T06:42:50.942Z,2.10
2022-08-10T06:45:22.698Z,1.60
2022-08-10T06:47:51.530Z,1.90
2022-08-10T06:50:56.099Z,1.67
2022-08-10T06:53:25.575Z,1.50
2022-08-10T06:56:15.850Z,1.67
2022-08-10T06:59:06.968Z,1.70
2022-08-10T07:01:43.524Z,1.47
2022-08-10T07:04:32.316Z,1.50
2022-08-10T07:07:03.168Z,1.60
2022-08-10T07:09:31.871Z,1.63
2022-08-10T07:12:08.127Z,1.50
2022-08-10T07:14:41.342Z,1.80
2022-08-10T07:17:15.975Z,1.97
2022-08-10T07:19:49.545Z,1.80
2022-08-10T07:23:05.840Z,1.50
2022-08-10T07:25:07.961Z,1.70
2022-08-10T07:27:39.112Z,1.67
2022-08-10T07:30:22.187Z,1.40
2022-08-10T07:32:51.149Z,1.50
2022-08-10T07:35:21.356Z,1.63
2022-08-10T07:37:50.937Z,1.50
2022-08-10T07:40:20.163Z,1.50
2022-08-10T07:42:53.696Z,1.57
2022-08-10T07:45:20.770Z,1.53
2022-08-10T07:47:57.563Z,1.77
2022-08-10T07:50:27.107Z,2.03
2022-08-10T07:53:00.070Z,1.67
2022-08-10T07:56:04.147Z,1.60
2022-08-10T07:58:19.807Z,1.80
2022-08-10T08:00:48.039Z,1.90
2022-08-10T08:03:16.846Z,1.63
2022-08-10T08:06:02.735Z,1.40
2022-08-10T08:08:33.242Z,1.77
2022-08-10T08:11:01.872Z,1.80
2022-08-10T08:13:30.401Z,1.67
2022-08-10T08:16:20.786Z,1.50
2022-08-10T08:18:58.248Z,1.63
2022-08-10T08:24:08.883Z,1.87
2022-08-10T08:24:31.819Z,1.60
2022-08-10T08:27:02.077Z,1.80
2022-08-10T08:29:31.364Z,1.57
2022-08-10T08:32:01.716Z,1.43
2022-08-10T08:34:31.603Z,1.40
2022-08-10T08:37:00.870Z,1.90
2022-08-10T08:39:27.794Z,1.93
2022-08-10T08:42:04.601Z,1.70
2022-08-10T08:44:54.235Z,1.23
2022-08-10T08:48:05.782Z,1.40
2022-08-10T08:50:55.257Z,1.43
2022-08-10T08:54:04.132Z,1.50
2022-08-10T08:56:59.813Z,1.47
2022-08-10T08:59:48.231Z,1.20
2022-08-10T09:02:26.966Z,1.30
2022-08-10T09:04:59.473Z,1.27
2022-08-10T09:08:11.937Z,1.30
2022-08-10T09:11:04.120Z,1.37
2022-08-10T09:13:54.346Z,1.23
2022-08-10T09:16:44.528Z,1.53
2022-08-10T09:19:35.440Z,1.20
2022-08-10T09:22:24.647Z,1.23
2022-08-10T09:25:14.548Z,1.50
2022-08-10T09:27:47.728Z,1.23
2022-08-10T09:30:28.384Z,1.27
2022-08-10T09:36:20.904Z,1.53
2022-08-10T09:36:25.143Z,1.20
2022-08-10T09:40:12.260Z,1.27
2022-08-10T09:42:37.816Z,1.13
2022-08-10T09:45:18.977Z,1.30
2022-08-10T09:48:01.812Z,1.37
2022-08-10T09:54:19.279Z,1.50
2022-08-10T09:57:41.477Z,1.30
2022-08-10T10:00:02.775Z,1.50
2022-08-10T10:02:35.951Z,1.20
2022-08-10T10:05:18.087Z,1.00
2022-08-10T10:07:53.559Z,1.40
2022-08-10T10:10:29.359Z,1.13
2022-08-10T10:13:42.253Z,1.53
2022-08-10T10:16:26.200Z,1.20
2022-08-10T10:19:04.542Z,1.70
2022-08-10T10:21:55.506Z,1.40
2022-08-10T10:24:39.768Z,1.23
2022-08-10T10:27:31.467Z,1.20
2022-08-10T10:30:10.553Z,1.33
2022-08-10T10:33:19.326Z,1.30
2022-08-10T10:35:54.836Z,1.47
2022-08-10T10:38:26.792Z,1.20
2022-08-10T10:41:57.309Z,1.30
2022-08-10T10:44:43.618Z,1.10
2022-08-10T10:47:21.709Z,1.10
2022-08-10T10:50:02.993Z,1.00
2022-08-10T10:52:58.259Z,1.30
2022-08-10T10:56:14.182Z,1.00
2022-08-10T10:58:59.501Z,1.10
2022-08-10T11:01:33.740Z,1.00
2022-08-10T11:04:15.792Z,1.13
2022-08-10T11:06:57.498Z,1.20
2022-08-10T11:10:09.278Z,1.20
2022-08-10T11:12:49.103Z,1.30
2022-08-10T11:15:57.867Z,1.60
2022-08-10T11:18:35.783Z,1.03
2022-08-10T11:21:27.525Z,1.10
2022-08-10T11:24:47.379Z,1.10
2022-08-10T11:27:36.458Z,1.10
2022-08-10T11:30:27.735Z,1.10
2022-08-10T11:33:04.895Z,1.20
2022-08-10T11:35:47.118Z,1.30
2022-08-10T11:38:57.682Z,1.23
2022-08-10T11:42:35.651Z,1.47
2022-08-10T11:45:12.023Z,1.00
2022-08-10T11:47:52.688Z,1.30
2022-08-10T11:50:27.602Z,1.03
2022-08-10T11:53:18.768Z,1.20
2022-08-10T11:55:50.518Z,1.10
2022-08-10T11:58:39.270Z,1.40
2022-08-10T12:01:10.086Z,1.73
2022-08-10T12:03:39.024Z,1.40
2022-08-10T12:06:09.873Z,1.60
2022-08-10T12:10:06.305Z,1.30
2022-08-10T12:11:29.407Z,1.13
2022-08-10T12:14:20.808Z,1.43
2022-08-10T12:16:51.239Z,1.37
2022-08-10T12:19:28.000Z,1.20
2022-08-10T12:22:05.896Z,1.50
2022-08-10T12:24:54.198Z,1.20
2022-08-10T12:27:35.217Z,1.50
2022-08-10T12:30:06.294Z,1.43
2022-08-10T12:32:59.535Z,1.37
2022-08-10T12:35:56.127Z,1.10
2022-08-10T12:38:40.658Z,1.50
2022-08-10T12:41:16.105Z,1.30
2022-08-10T12:44:07.737Z,1.30
2022-08-10T12:46:54.203Z,1.70
2022-08-10T12:50:29.254Z,1.33
2022-08-10T12:52:42.216Z,1.37
2022-08-10T12:55:10.579Z,1.20
2022-08-10T12:57:38.838Z,1.13
2022-08-10T13:00:07.176Z,1.37
2022-08-10T13:02:48.543Z,1.30
2022-08-10T13:05:16.333Z,1.37
2022-08-10T13:08:03.810Z,1.47
2022-08-10T13:10:33.644Z,1.40
2022-08-10T13:13:02.123Z,1.50
2022-08-10T13:15:49.722Z,1.40
2022-08-10T13:18:26.049Z,1.50
2022-08-10T13:20:54.784Z,1.50
2022-08-10T13:23:26.582Z,1.50
2022-08-10T13:25:56.467Z,1.43
2022-08-10T13:28:36.929Z,1.23
2022-08-10T13:31:16.989Z,1.30
2022-08-10T13:34:40.881Z,1.33
2022-08-10T13:36:41.409Z,1.40
2022-08-10T13:39:08.750Z,1.57
2022-08-10T13:41:39.817Z,1.30
2022-08-10T13:44:08.332Z,1.93
2022-08-10T13:46:40.058Z,1.73
2022-08-10T13:49:08.119Z,1.67
2022-08-10T13:51:54.206Z,1.53
2022-08-10T13:54:35.772Z,1.60
2022-08-10T13:57:02.906Z,1.50
2022-08-10T14:00:37.525Z,1.43
2022-08-10T14:02:38.128Z,1.20
2022-08-10T14:05:07.088Z,1.50
2022-08-10T14:07:38.958Z,1.60
2022-08-10T14:11:09.995Z,1.60
2022-08-10T14:13:09.947Z,1.80
2022-08-10T14:15:38.905Z,1.43
2022-08-10T14:18:08.226Z,1.57
2022-08-10T14:20:36.672Z,1.80
2022-08-10T14:23:06.670Z,1.53
2022-08-10T14:25:50.807Z,1.70
2022-08-10T14:28:24.893Z,2.30
2022-08-10T14:31:02.371Z,1.37
2022-08-10T14:33:31.250Z,1.80
2022-08-10T14:36:22.584Z,1.50
2022-08-10T14:38:46.722Z,1.53
2022-08-10T14:42:02.646Z,1.20
2022-08-10T14:44:12.360Z,1.53
2022-08-10T14:46:51.368Z,1.40
2022-08-10T14:49:25.387Z,1.33
2022-08-10T14:52:00.875Z,1.70
2022-08-10T14:54:30.161Z,1.80
2022-08-10T14:57:11.207Z,1.70
2022-08-10T15:00:24.377Z,1.23
2022-08-10T15:02:40.205Z,1.67
2022-08-10T15:05:19.934Z,1.63
2022-08-10T15:07:59.334Z,1.57
2022-08-10T15:10:27.956Z,1.63
2022-08-10T15:12:58.825Z,1.50
2022-08-10T15:15:28.373Z,1.40
2022-08-10T15:17:58.263Z,1.40
2022-08-10T15:20:29.413Z,1.53
2022-08-10T15:23:06.772Z,1.47
2022-08-10T15:25:38.895Z,1.47
2022-08-10T15:28:10.390Z,1.83
2022-08-10T15:30:43.778Z,1.47
2022-08-10T15:33:57.626Z,1.60
2022-08-10T15:36:58.745Z,1.40
2022-08-10T15:40:24.023Z,1.53
2022-08-10T15:42:55.033Z,1.50
2022-08-10T15:45:25.452Z,1.53
2022-08-10T15:48:02.448Z,1.40
2022-08-10T15:50:39.749Z,1.50
2022-08-10T15:53:50.701Z,1.67
2022-08-10T15:57:00.170Z,1.40
2022-08-10T15:59:33.816Z,1.40
2022-08-10T16:02:17.275Z,1.50
2022-08-10T16:05:04.732Z,1.83
2022-08-10T16:07:45.328Z,1.43
2022-08-10T16:10:25.327Z,1.57
2022-08-10T16:12:59.921Z,1.60
2022-08-10T16:15:28.903Z,1.20
2022-08-10T16:18:05.763Z,1.37
2022-08-10T16:20:47.906Z,1.40
2022-08-10T16:23:46.198Z,1.30
2022-08-10T16:26:42.894Z,1.43
2022-08-10T16:29:22.776Z,1.37
2022-08-10T16:31:58.522Z,1.57
2022-08-10T16:34:29.119Z,1.30
2022-08-10T16:36:59.333Z,1.30
2022-08-10T16:40:00.201Z,1.33
2022-08-10T16:42:28.404Z,1.70
2022-08-10T16:45:05.465Z,1.30
2022-08-10T16:47:53.484Z,1.80
2022-08-10T16:50:31.286Z,1.40
2022-08-10T16:53:01.799Z,1.80
2022-08-10T16:55:48.175Z,1.60
2022-08-10T16:58:25.255Z,1.20
2022-08-10T17:00:53.387Z,1.40
2022-08-10T17:04:07.569Z,2.10
2022-08-10T17:06:35.921Z,1.37
2022-08-10T17:09:06.934Z,1.50
2022-08-10T17:11:40.000Z,1.40
2022-08-10T17:14:08.226Z,1.40
2022-08-10T17:16:50.727Z,1.10
2022-08-10T17:19:21.050Z,1.60
2022-08-10T17:21:58.206Z,1.30
2022-08-10T17:24:36.806Z,1.30
2022-08-10T17:28:03.775Z,1.07
2022-08-10T17:30:03.566Z,1.60
2022-08-10T17:32:57.634Z,1.87
2022-08-10T17:35:28.218Z,1.10
2022-08-10T17:38:12.374Z,1.10
2022-08-10T17:40:52.648Z,1.23
2022-08-10T17:43:46.251Z,1.40
2022-08-10T17:46:11.819Z,1.40
2022-08-10T17:48:40.715Z,1.33
2022-08-10T17:51:15.296Z,1.30
2022-08-10T17:53:49.371Z,1.50
2022-08-10T17:56:16.801Z,1.43
2022-08-10T17:58:57.593Z,1.53
2022-08-10T18:01:41.435Z,1.47
2022-08-10T18:04:17.828Z,1.47
2022-08-10T18:06:45.246Z,1.50
2022-08-10T18:09:24.740Z,1.50
2022-08-10T18:11:58.450Z,1.30
2022-08-10T18:14:30.103Z,1.40
2022-08-10T18:16:58.706Z,1.60
2022-08-10T18:19:29.475Z,1.53
2022-08-10T18:21:56.414Z,1.20
2022-08-10T18:24:23.503Z,1.10
2022-08-10T18:26:52.274Z,1.40
2022-08-10T18:29:22.801Z,1.40
2022-08-10T18:31:58.901Z,1.20
2022-08-10T18:34:27.866Z,1.20
2022-08-10T18:36:56.348Z,1.43
2022-08-10T18:39:35.068Z,1.40
2022-08-10T18:42:11.644Z,1.20
2022-08-10T18:44:43.609Z,1.50
2022-08-10T18:47:36.430Z,1.20
2022-08-10T18:50:14.249Z,1.23
2022-08-10T18:52:46.159Z,1.47
2022-08-10T18:55:27.092Z,1.60
2022-08-10T18:58:13.561Z,1.13
2022-08-10T19:01:04.837Z,1.70
2022-08-10T19:03:59.861Z,1.30
2022-08-10T19:06:32.027Z,1.40
2022-08-10T19:09:41.448Z,1.23
2022-08-10T19:12:30.869Z,1.10
2022-08-10T19:15:11.428Z,1.37
2022-08-10T19:18:17.229Z,1.43
2022-08-10T19:21:26.862Z,1.40
2022-08-10T19:24:02.781Z,1.20
2022-08-10T19:26:43.860Z,1.17
2022-08-10T19:30:13.043Z,1.23
2022-08-10T19:32:18.121Z,1.27
2022-08-10T19:34:58.082Z,1.20
2022-08-10T19:37:32.990Z,1.40
2022-08-10T19:40:43.485Z,1.20
2022-08-10T19:43:59.367Z,1.57
2022-08-10T19:46:47.240Z,1.27
2022-08-10T19:49:39.861Z,1.20
2022-08-10T19:52:26.153Z,1.47
2022-08-10T19:55:09.091Z,1.60
2022-08-10T19:58:04.643Z,1.10
2022-08-10T20:01:02.597Z,1.60
2022-08-10T20:03:29.202Z,1.30
2022-08-10T20:06:17.962Z,1.40
2022-08-10T20:09:04.285Z,1.67
2022-08-10T20:11:52.298Z,1.20
2022-08-10T20:14:26.329Z,1.20
2022-08-10T20:17:02.202Z,1.40
2022-08-10T20:19:53.995Z,1.30
2022-08-10T20:22:30.476Z,1.40
2022-08-10T20:25:14.266Z,1.20
2022-08-10T20:28:03.240Z,1.77
2022-08-10T20:30:33.212Z,1.47
2022-08-10T20:33:00.222Z,1.50
2022-08-10T20:35:32.346Z,1.37
2022-08-10T20:38:19.518Z,1.30
2022-08-10T20:40:57.653Z,1.73
2022-08-10T20:43:56.257Z,1.50
2022-08-10T20:46:29.554Z,1.53
2022-08-10T20:49:08.109Z,1.23
2022-08-10T20:51:58.747Z,1.40
2022-08-10T20:54:34.058Z,1.47
2022-08-10T20:57:54.977Z,1.53
2022-08-10T21:00:29.891Z,1.47
2022-08-10T21:03:15.685Z,1.30
2022-08-10T21:06:41.759Z,1.30
2022-08-10T21:09:47.891Z,1.87
2022-08-10T21:12:21.507Z,1.40
2022-08-10T21:15:15.254Z,1.83
2022-08-10T21:18:22.942Z,1.60
2022-08-10T21:21:16.659Z,1.20
2022-08-10T21:23:50.396Z,1.30
2022-08-10T21:26:45.188Z,1.50
2022-08-10T21:29:37.944Z,1.50
2022-08-10T21:32:34.943Z,1.63
2022-08-10T21:35:07.371Z,1.77
2022-08-10T21:37:39.976Z,1.60
2022-08-10T21:40:40.610Z,1.73
2022-08-10T21:44:03.880Z,1.40
2022-08-10T21:47:06.497Z,1.80
2022-08-10T21:49:57.501Z,1.80
2022-08-10T21:53:04.022Z,1.43
2022-08-10T21:56:11.433Z,1.80
2022-08-10T21:59:13.004Z,2.43
2022-08-10T22:02:08.428Z,2.60
2022-08-10T22:04:54.506Z,2.77
2022-08-10T22:07:40.441Z,2.53
2022-08-10T22:10:28.497Z,2.30
2022-08-10T22:13:19.706Z,2.57
2022-08-10T22:16:12.091Z,2.77
2022-08-10T22:19:03.721Z,3.00
2022-08-10T22:21:57.510Z,2.77
2022-08-10T22:25:18.743Z,2.40
2022-08-10T22:28:12.403Z,2.97
2022-08-10T22:31:29.998Z,2.60
2022-08-10T22:34:38.516Z,2.60
2022-08-10T22:37:57.335Z,2.47
2022-08-10T22:40:43.912Z,2.87
2022-08-10T22:43:40.263Z,2.70
2022-08-10T22:46:34.070Z,2.77
2022-08-10T22:49:01.031Z,3.03
2022-08-10T22:51:46.022Z,2.63
2022-08-10T22:54:39.855Z,3.13
2022-08-10T22:57:30.780Z,2.97
2022-08-10T22:59:57.860Z,3.10
2022-08-10T23:02:33.877Z,3.23
2022-08-10T23:05:10.236Z,3.20
2022-08-10T23:07:47.294Z,2.97
2022-08-10T23:10:16.341Z,3.17
2022-08-10T23:12:50.997Z,3.00
2022-08-10T23:15:51.514Z,3.17
2022-08-10T23:19:02.053Z,2.93
2022-08-10T23:21:47.768Z,3.37
2022-08-10T23:24:39.521Z,2.80
2022-08-10T23:27:13.245Z,2.90
2022-08-10T23:30:03.730Z,2.97
2022-08-10T23:32:42.158Z,2.57
2022-08-10T23:36:13.111Z,3.10
2022-08-10T23:38:04.983Z,3.10
2022-08-10T23:40:32.755Z,2.73
2022-08-10T23:43:00.505Z,2.87
2022-08-10T23:45:29.413Z,2.67
2022-08-10T23:48:19.751Z,2.80
2022-08-10T23:50:59.365Z,3.03
2022-08-10T23:53:29.387Z,2.67
2022-08-10T23:56:10.307Z,3.00
2022-08-10T23:58:46.018Z,3.20
